Portada
METAR-TAF:

METAR-TAF

Aeropuertos :

Plataforma petrolífera

Statfjord B, Noruega

latitud: 61-12-22N, longitud: 1-49-45E, altitud: 10 m

Observación

El informe se hizo hace 43 minutos, a las 12:20 UTC
Viento 27 kt del norte-noreste
Temperatura 12°C
Humedad 94%
Presión 1009 hPa
Visibilidad 10 km o más

METAR: ENFB 141220Z AUTO 03027KT 9999 OVC006/// 12/11 Q1009 W///S5

Hora: 15:03 (13:03 UTC)


TAF: falta

Observaciones y pronósticos meteorológicos de más de 4000 aeropuertos (mensajes METAR y TAF).

Los puntos amarillos y rojos representan las estaciones disponibles.

Ponga el ratón en el punto deseado para ver el nombre de la estación.

Haga clic para ver las observaciones y los pronósticos meteorológicos.

Para cambiar el mapa : haga clic en los botones verdes con una cruz de color negro para hacer un zoom, en el botón verde con un guión para alejar o en las flechas verdes para mapas adyacentes.


METAR-TAF: